createdAt,value
2022-08-10T00:03:08.331Z,1025.95
2022-08-10T00:08:00.796Z,1025.85
2022-08-10T00:12:58.987Z,1025.84
2022-08-10T00:17:50.558Z,1025.9
2022-08-10T00:22:48.995Z,1025.92
2022-08-10T00:27:50.242Z,1025.85
2022-08-10T00:32:27.649Z,1025.81
2022-08-10T00:37:20.363Z,1025.83
2022-08-10T00:42:12.981Z,1025.83
2022-08-10T00:47:05.468Z,1025.8
2022-08-10T00:51:57.913Z,1025.79
2022-08-10T00:57:15.387Z,1025.81
2022-08-10T01:02:10.393Z,1025.73
2022-08-10T01:06:35.390Z,1025.78
2022-08-10T01:11:42.305Z,1025.83
2022-08-10T01:16:19.964Z,1025.8
2022-08-10T01:21:12.417Z,1025.84
2022-08-10T01:26:10.328Z,1025.8
2022-08-10T01:30:57.426Z,1025.73
2022-08-10T01:35:50.034Z,1025.81
2022-08-10T01:40:42.519Z,1025.76
2022-08-10T01:50:27.252Z,1025.86
2022-08-10T02:00:12.387Z,1025.92
2022-08-10T02:05:05.093Z,1025.92
2022-08-10T02:09:57.756Z,1025.92
2022-08-10T02:14:50.343Z,1025.99
2022-08-10T02:19:42.830Z,1025.96
2022-08-10T02:24:35.571Z,1025.95
2022-08-10T02:29:28.350Z,1026.02
2022-08-10T02:34:20.886Z,1026
2022-08-10T02:39:13.649Z,1025.97
2022-08-10T02:45:16.655Z,1025.92
2022-08-10T02:48:58.530Z,1025.84
2022-08-10T02:53:55.608Z,1025.87
2022-08-10T02:58:43.569Z,1025.91
2022-08-10T03:03:36.011Z,1025.91
2022-08-10T03:08:28.832Z,1025.95
2022-08-10T03:13:23.600Z,1026.03
2022-08-10T03:18:15.607Z,1026.04
2022-08-10T03:23:07.943Z,1026.07
2022-08-10T03:28:00.606Z,1026.08
2022-08-10T03:32:53.691Z,1026.07
2022-08-10T03:37:45.827Z,1026.04
2022-08-10T03:42:38.293Z,1026.1
2022-08-10T03:47:30.758Z,1026.12
2022-08-10T03:52:23.353Z,1026.17
2022-08-10T03:57:15.884Z,1026.23
2022-08-10T04:02:42.518Z,1026.25
2022-08-10T04:07:00.364Z,1026.22
2022-08-10T04:11:53.024Z,1026.27
2022-08-10T04:16:45.599Z,1026.33
2022-08-10T04:21:38.261Z,1026.34
2022-08-10T04:26:30.612Z,1026.4
2022-08-10T04:31:22.925Z,1026.4
2022-08-10T04:36:15.141Z,1026.43
2022-08-10T04:41:07.512Z,1026.54
2022-08-10T04:45:59.766Z,1026.55
2022-08-10T04:50:54.127Z,1026.61
2022-08-10T04:55:45.185Z,1026.6
2022-08-10T05:00:38.263Z,1026.59
2022-08-10T05:05:31.078Z,1026.63
2022-08-10T05:10:23.873Z,1026.64
2022-08-10T05:15:16.342Z,1026.64
2022-08-10T05:20:08.975Z,1026.63
2022-08-10T05:25:01.730Z,1026.69
2022-08-10T05:30:01.958Z,1026.72
2022-08-10T05:34:46.325Z,1026.7
2022-08-10T05:39:38.960Z,1026.75
2022-08-10T05:44:30.852Z,1026.75
2022-08-10T05:49:23.612Z,1026.75
2022-08-10T05:54:16.002Z,1026.78
2022-08-10T05:59:08.773Z,1026.84
2022-08-10T06:04:00.637Z,1026.93
2022-08-10T06:08:53.365Z,1026.94
2022-08-10T06:13:59.524Z,1026.93
2022-08-10T06:18:37.992Z,1026.94
2022-08-10T06:23:30.870Z,1026.92
2022-08-10T06:28:23.988Z,1026.89
2022-08-10T06:33:16.000Z,1026.9
2022-08-10T06:38:08.393Z,1026.98
2022-08-10T06:43:00.635Z,1027.02
2022-08-10T06:47:53.121Z,1026.97
2022-08-10T06:52:45.693Z,1027
2022-08-10T06:57:38.651Z,1026.87
2022-08-10T07:02:31.067Z,1026.87
2022-08-10T07:07:23.441Z,1026.86
2022-08-10T07:12:16.150Z,1026.89
2022-08-10T07:17:08.529Z,1026.94
2022-08-10T07:22:01.036Z,1026.91
2022-08-10T07:26:53.873Z,1026.92
2022-08-10T07:31:56.698Z,1026.92
2022-08-10T07:36:38.927Z,1026.86
2022-08-10T07:41:26.787Z,1026.86
2022-08-10T07:46:19.194Z,1026.8
2022-08-10T07:56:16.799Z,1026.82
2022-08-10T08:05:59.261Z,1026.8
2022-08-10T08:16:21.036Z,1026.8
2022-08-10T08:25:24.864Z,1026.72
2022-08-10T08:30:19.361Z,1026.71
2022-08-10T08:35:10.436Z,1026.71
2022-08-10T08:40:03.445Z,1026.63
2022-08-10T08:44:55.963Z,1026.6
2022-08-10T08:50:05.439Z,1026.6
2022-08-10T08:54:41.262Z,1026.54
2022-08-10T08:59:34.046Z,1026.5
2022-08-10T09:04:27.345Z,1026.5
2022-08-10T09:09:20.082Z,1026.45
2022-08-10T09:14:12.507Z,1026.37
2022-08-10T09:19:05.346Z,1026.35
2022-08-10T09:24:02.411Z,1026.28
2022-08-10T09:28:52.445Z,1026.33
2022-08-10T09:36:18.567Z,1026.21
2022-08-10T09:38:36.419Z,1026.12
2022-08-10T09:43:28.905Z,1026.07
2022-08-10T09:48:21.590Z,1025.97
2022-08-10T09:53:14.258Z,1025.98
2022-08-10T09:58:06.996Z,1025.89
2022-08-10T10:02:59.824Z,1025.83
2022-08-10T10:07:52.640Z,1025.73
2022-08-10T10:12:45.463Z,1025.72
2022-08-10T10:17:38.113Z,1025.57
2022-08-10T10:22:30.718Z,1025.55
2022-08-10T10:27:23.508Z,1025.53
2022-08-10T10:32:16.335Z,1025.39
2022-08-10T10:37:09.000Z,1025.3
2022-08-10T10:42:04.189Z,1025.26
2022-08-10T10:46:53.888Z,1025.24
2022-08-10T10:51:46.667Z,1025.21
2022-08-10T10:56:39.395Z,1025.17
2022-08-10T11:01:31.674Z,1025.09
2022-08-10T11:06:34.328Z,1025.14
2022-08-10T11:11:20.513Z,1025.05
2022-08-10T11:16:10.042Z,1024.99
2022-08-10T11:21:02.574Z,1025.09
2022-08-10T11:25:55.185Z,1025.03
2022-08-10T11:30:48.235Z,1025.07
2022-08-10T11:35:40.667Z,1025.01
2022-08-10T11:40:33.180Z,1024.99
2022-08-10T11:45:26.152Z,1025.03
2022-08-10T11:50:18.623Z,1024.98
2022-08-10T11:55:11.124Z,1024.94
2022-08-10T12:00:03.971Z,1024.82
2022-08-10T12:04:56.488Z,1024.82
2022-08-10T12:10:03.344Z,1024.73
2022-08-10T12:14:41.562Z,1024.68
2022-08-10T12:19:36.619Z,1024.66
2022-08-10T12:24:26.580Z,1024.58
2022-08-10T12:29:21.435Z,1024.61
2022-08-10T12:34:11.223Z,1024.58
2022-08-10T12:39:04.035Z,1024.43
2022-08-10T12:44:04.157Z,1024.35
2022-08-10T12:48:49.744Z,1024.38
2022-08-10T12:53:42.547Z,1024.38
2022-08-10T12:58:58.581Z,1024.32
2022-08-10T13:04:20.065Z,1024.25
2022-08-10T13:08:26.140Z,1024.18
2022-08-10T13:13:13.011Z,1024.15
2022-08-10T13:18:05.691Z,1024.06
2022-08-10T13:22:58.108Z,1024.03
2022-08-10T13:28:00.304Z,1023.96
2022-08-10T13:32:43.249Z,1023.85
2022-08-10T13:37:36.090Z,1023.78
2022-08-10T13:42:31.765Z,1023.78
2022-08-10T13:47:21.217Z,1023.71
2022-08-10T13:52:13.826Z,1023.74
2022-08-10T13:57:06.643Z,1023.66
2022-08-10T14:01:59.110Z,1023.62
2022-08-10T14:06:52.356Z,1023.59
2022-08-10T14:11:45.450Z,1023.57
2022-08-10T14:16:38.185Z,1023.52
2022-08-10T14:21:31.105Z,1023.47
2022-08-10T14:26:23.852Z,1023.44
2022-08-10T14:31:19.893Z,1023.41
2022-08-10T14:36:17.158Z,1023.33
2022-08-10T14:41:02.150Z,1023.28
2022-08-10T14:45:54.911Z,1023.19
2022-08-10T14:50:55.070Z,1023.21
2022-08-10T14:55:57.468Z,1023.23
2022-08-10T15:00:39.143Z,1023.23
2022-08-10T15:05:25.716Z,1023.17
2022-08-10T15:10:18.595Z,1023.14
2022-08-10T15:20:14.046Z,1023.21
2022-08-10T15:29:56.791Z,1023.1
2022-08-10T15:40:23.033Z,1022.97
2022-08-10T15:44:26.829Z,1022.89
2022-08-10T15:49:19.408Z,1022.88
2022-08-10T15:54:12.423Z,1022.98
2022-08-10T15:59:08.138Z,1022.95
2022-08-10T16:03:57.439Z,1022.9
2022-08-10T16:08:50.250Z,1022.85
2022-08-10T16:13:49.930Z,1022.8
2022-08-10T16:18:35.611Z,1022.81
2022-08-10T16:23:28.127Z,1022.7
2022-08-10T16:28:23.560Z,1022.67
2022-08-10T16:33:13.410Z,1022.67
2022-08-10T16:38:06.141Z,1022.61
2022-08-10T16:42:58.579Z,1022.71
2022-08-10T16:47:51.132Z,1022.74
2022-08-10T16:52:43.790Z,1022.64
2022-08-10T16:57:36.847Z,1022.65
2022-08-10T17:02:29.800Z,1022.72
2022-08-10T17:07:25.007Z,1022.74
2022-08-10T17:12:15.959Z,1022.76
2022-08-10T17:17:08.697Z,1022.68
2022-08-10T17:22:01.352Z,1022.71
2022-08-10T17:26:54.349Z,1022.6
2022-08-10T17:31:54.318Z,1022.58
2022-08-10T17:36:40.086Z,1022.61
2022-08-10T17:41:32.829Z,1022.51
2022-08-10T17:46:25.492Z,1022.54
2022-08-10T17:51:18.237Z,1022.54
2022-08-10T17:56:11.178Z,1022.59
2022-08-10T18:01:16.083Z,1022.59
2022-08-10T18:05:56.407Z,1022.59
2022-08-10T18:10:49.106Z,1022.62
2022-08-10T18:15:41.989Z,1022.62
2022-08-10T18:20:34.209Z,1022.67
2022-08-10T18:25:26.978Z,1022.66
2022-08-10T18:30:19.683Z,1022.74
2022-08-10T18:35:12.545Z,1022.7
2022-08-10T18:40:05.417Z,1022.73
2022-08-10T18:44:58.039Z,1022.75
2022-08-10T18:49:50.958Z,1022.81
2022-08-10T18:54:45.190Z,1022.9
2022-08-10T18:59:36.015Z,1022.91
2022-08-10T19:04:28.268Z,1022.95
2022-08-10T19:09:41.439Z,1022.98
2022-08-10T19:14:13.507Z,1022.98
2022-08-10T19:19:06.117Z,1023.05
2022-08-10T19:23:58.768Z,1023.1
2022-08-10T19:28:51.434Z,1023.11
2022-08-10T19:33:44.120Z,1023.13
2022-08-10T19:38:36.798Z,1023.14
2022-08-10T19:43:31.062Z,1023.15
2022-08-10T19:48:22.227Z,1023.14
2022-08-10T19:53:14.808Z,1023.18
2022-08-10T19:58:07.489Z,1023.16
2022-08-10T20:02:59.955Z,1023.2
2022-08-10T20:07:52.152Z,1023.15
2022-08-10T20:12:38.234Z,1023.13
2022-08-10T20:17:44.895Z,1023.17
2022-08-10T20:22:28.925Z,1023.26
2022-08-10T20:27:56.690Z,1023.25
2022-08-10T20:37:04.483Z,1023.33
2022-08-10T20:46:49.931Z,1023.31
2022-08-10T20:51:57.811Z,1023.33
2022-08-10T20:56:35.279Z,1023.35
2022-08-10T21:06:31.634Z,1023.26
2022-08-10T21:11:13.338Z,1023.23
2022-08-10T21:16:05.962Z,1023.13
2022-08-10T21:20:59.534Z,1023.16
2022-08-10T21:25:51.063Z,1023.24
2022-08-10T21:30:43.491Z,1023.21
2022-08-10T21:35:37.317Z,1023.26
2022-08-10T21:40:32.466Z,1023.25
2022-08-10T21:45:21.483Z,1023.27
2022-08-10T21:50:14.063Z,1023.31
2022-08-10T21:55:06.843Z,1023.34
2022-08-10T21:59:59.343Z,1023.36
2022-08-10T22:04:51.773Z,1023.33
2022-08-10T22:09:44.365Z,1023.31
2022-08-10T22:14:37.084Z,1023.32
2022-08-10T22:19:29.634Z,1023.31
2022-08-10T22:24:22.267Z,1023.22
2022-08-10T22:29:15.055Z,1023.23
2022-08-10T22:34:07.538Z,1023.24
2022-08-10T22:38:59.995Z,1023.32
2022-08-10T22:43:52.548Z,1023.41
2022-08-10T22:48:45.030Z,1023.36
2022-08-10T22:53:37.159Z,1023.3
2022-08-10T22:58:29.952Z,1023.32
2022-08-10T23:03:22.768Z,1023.34
2022-08-10T23:08:29.553Z,1023.36
2022-08-10T23:13:07.808Z,1023.33
2022-08-10T23:18:01.272Z,1023.34
2022-08-10T23:22:52.538Z,1023.35
2022-08-10T23:27:44.982Z,1023.3
2022-08-10T23:32:37.551Z,1023.23
2022-08-10T23:37:29.847Z,1023.25
2022-08-10T23:42:22.609Z,1023.28
2022-08-10T23:47:15.223Z,1023.22
2022-08-10T23:52:07.728Z,1023.22
2022-08-10T23:57:01.219Z,1023.19
